Grangeville, ID

7:45 AM PDT on October 25, 2014 (GMT -0700)
Elk St. | Change Station
CLOSE
Current Station
Personal Weather Station
Location: Grangeville, ID
Elevation: 3460 ft
Nearby Weather Stations
Active Advisory: Wind Advisory

Elev 3460 ft 45.92 °N, 116.13 °W | Updated 7 seconds ago

Clear
Clear
42.3 °F
Feels Like 42 °F
N
3.0
Wind Variable Wind from East
Gusts 4.0 mph

Today
High -- | Low -- °F
--% Chance of Precip.
Yesterday
High -- | Low -- °F
Precip. -- in
7:15 AM 5:41 PM
Waxing Crescent, 3% visible
Pressure 29.81 in
Visibility 10.0 miles
Clouds Clear
Windchill 42 °F
Dew Point 42 °F
Humidity 98%
Rainfall 0.00 in
Snow Depth Not available.
UV 0 out of 12
Pollen 2.40 out of 12
Air Quality Not available.
Flu Activity No Activity
METAR KGIC 251435Z AUTO 17004KT 10SM CLR 05/04 A2981 RMK AO1 T00520044

More Conditions Fewer Conditions

Pressure 29.81 in
Visibility 10.0 miles
Clouds Clear
Windchill 42 °F
Dew Point 42 °F
Humidity 98%
Rainfall 0.00 in
Snow Depth Not available.
UV 0 out of 12
Pollen 2.40 out of 12
Air Quality Not available.
Flu Activity No Activity
METAR KGIC 251435Z AUTO 17004KT 10SM CLR 05/04 A2981 RMK AO1 T00520044

More Conditions Fewer Conditions

10-Day Weather Forecast

Almanac

Astronomy

Oct. 25, 2014 Rise Set
Actual Time 7:15 AM PDT 5:41 PM PDT
Civil Twilight 6:44 AM PDT 6:11 PM PDT
Nautical Twilight 6:09 AM PDT 6:46 PM PDT
Astronomical Twilight 5:34 AM PDT 7:21 PM PDT
Moon 9:02 AM PDT 7:02 PM PDT
Length of Visible Light 11h 27m
Length of Day
10h 26m
Tomorrow will be 3m 1s shorter.
Waxing Crescent, 3% of the Moon is Illuminated
Today
Waxing Crescent
Oct 30
First Quarter
Nov 6
Full
Nov 14
Last Quarter
Nov 22
New

Today's Extremes

State Highs State Lows

Community

WunderPhotos

Upload Photos

1,764,861 photos uploaded!

Nearby

Snow Depth

Station Depth Elevation
Hemlock Butte 0 in 5810 ft
Shanghi Summit 0 in 4570 ft
Secesh Summit 1 in 6520 ft
Crater Meadows 0 in 5960 ft
Brundage Reservoir 0 in 6300 ft

Earthquake Activity

City Distance Mag. Time & Date
No recent earthquake activity has been reported nearby.
Minimum magnitude displayed is 2.5.

Coastal Water Temperatures

Place Temperature
No Stations Reporting

Nearby Weather Stations